createdAt,value
2018-12-19T00:00:25.258Z,1017.10
2018-12-19T00:01:25.208Z,1017.09
2018-12-19T00:02:25.162Z,1017.11
2018-12-19T00:03:25.118Z,1017.09
2018-12-19T00:04:25.069Z,1017.13
2018-12-19T00:05:25.021Z,1017.12
2018-12-19T00:06:24.975Z,1017.13
2018-12-19T00:07:24.928Z,1017.10
2018-12-19T00:08:24.882Z,1017.02
2018-12-19T00:09:24.834Z,1017.10
2018-12-19T00:10:24.787Z,1017.08
2018-12-19T00:11:24.740Z,1017.06
2018-12-19T00:12:24.693Z,1017.10
2018-12-19T00:13:24.646Z,1017.03
2018-12-19T00:14:24.598Z,1017.06
2018-12-19T00:15:24.601Z,1017.04
2018-12-19T00:16:24.655Z,1016.98
2018-12-19T00:17:24.458Z,1016.97
2018-12-19T00:18:24.411Z,1017.05
2018-12-19T00:19:24.365Z,1017.05
2018-12-19T00:20:24.316Z,1017.02
2018-12-19T00:21:24.269Z,1017.03
2018-12-19T00:22:24.223Z,1017.03
2018-12-19T00:23:24.177Z,1017.01
2018-12-19T00:24:24.128Z,1017.00
2018-12-19T00:25:24.082Z,1016.98
2018-12-19T00:26:24.035Z,1017.01
2018-12-19T00:27:23.989Z,1016.98
2018-12-19T00:28:23.940Z,1017.01
2018-12-19T00:29:23.894Z,1016.97
2018-12-19T00:30:23.846Z,1016.94
2018-12-19T00:31:23.802Z,1016.97
2018-12-19T00:32:23.753Z,1017.01
2018-12-19T00:33:23.712Z,1016.96
2018-12-19T00:34:23.659Z,1016.93
2018-12-19T00:35:23.612Z,1016.98
2018-12-19T00:36:23.613Z,1016.92
2018-12-19T00:37:23.518Z,1016.95
2018-12-19T00:38:23.470Z,1016.89
2018-12-19T00:39:23.424Z,1016.83
2018-12-19T00:40:23.376Z,1016.81
2018-12-19T00:41:23.329Z,1016.81
2018-12-19T00:42:23.283Z,1016.89
2018-12-19T00:43:23.235Z,1016.85
2018-12-19T00:44:23.188Z,1016.90
2018-12-19T00:45:23.148Z,1016.89
2018-12-19T00:46:23.095Z,1016.95
2018-12-19T00:47:23.050Z,1016.93
2018-12-19T00:48:23.318Z,1016.86
2018-12-19T00:49:22.954Z,1016.91
2018-12-19T00:50:22.907Z,1016.89
2018-12-19T00:51:22.860Z,1016.84
2018-12-19T00:52:22.815Z,1016.83
2018-12-19T00:53:22.766Z,1016.87
2018-12-19T00:54:22.722Z,1016.89
2018-12-19T00:55:22.672Z,1016.88
2018-12-19T00:56:22.625Z,1016.90
2018-12-19T00:57:22.582Z,1016.89
2018-12-19T00:58:22.531Z,1016.88
2018-12-19T00:59:22.485Z,1016.88
2018-12-19T01:00:22.437Z,1016.87
2018-12-19T01:01:22.390Z,1016.90
2018-12-19T01:02:22.344Z,1016.90
2018-12-19T01:03:22.296Z,1016.89
2018-12-19T01:04:22.249Z,1016.85
2018-12-19T01:05:22.201Z,1016.87
2018-12-19T01:06:22.154Z,1016.91
2018-12-19T01:07:22.107Z,1016.89
2018-12-19T01:08:22.062Z,1016.85
2018-12-19T01:09:22.014Z,1016.83
2018-12-19T01:10:21.968Z,1016.82
2018-12-19T01:11:21.922Z,1016.81
2018-12-19T01:12:21.874Z,1016.79
2018-12-19T01:13:21.825Z,1016.74
2018-12-19T01:14:21.780Z,1016.72
2018-12-19T01:15:21.735Z,1016.70
2018-12-19T01:16:21.684Z,1016.74
2018-12-19T01:17:21.637Z,1016.75
2018-12-19T01:18:21.591Z,1016.73
2018-12-19T01:19:21.545Z,1016.75
2018-12-19T01:20:21.499Z,1016.74
2018-12-19T01:21:21.452Z,1016.70
2018-12-19T01:22:21.405Z,1016.70
2018-12-19T01:23:21.357Z,1016.70
2018-12-19T01:24:21.310Z,1016.75
2018-12-19T01:25:21.263Z,1016.78
2018-12-19T01:26:21.216Z,1016.71
2018-12-19T01:27:21.168Z,1016.69
2018-12-19T01:28:21.122Z,1016.72
2018-12-19T01:29:21.075Z,1016.68
2018-12-19T01:30:21.028Z,1016.78
2018-12-19T01:31:20.981Z,1016.72
2018-12-19T01:32:20.935Z,1016.66
2018-12-19T01:33:20.889Z,1016.69
2018-12-19T01:34:20.842Z,1016.61
2018-12-19T01:35:20.794Z,1016.64
2018-12-19T01:36:20.746Z,1016.62
2018-12-19T01:37:20.700Z,1016.60
2018-12-19T01:38:20.653Z,1016.56
2018-12-19T01:39:22.536Z,1016.58
2018-12-19T01:40:20.658Z,1016.56
2018-12-19T01:41:20.514Z,1016.63
2018-12-19T01:42:20.464Z,1016.62
2018-12-19T01:43:20.418Z,1016.65
2018-12-19T01:44:20.369Z,1016.66
2018-12-19T01:45:20.323Z,1016.66
2018-12-19T01:46:20.280Z,1016.66
2018-12-19T01:47:20.229Z,1016.70
2018-12-19T01:48:20.182Z,1016.66
2018-12-19T01:49:20.136Z,1016.67
2018-12-19T01:50:20.089Z,1016.70
2018-12-19T01:51:20.045Z,1016.66
2018-12-19T01:52:19.997Z,1016.71
2018-12-19T01:53:19.946Z,1016.69
2018-12-19T01:54:19.901Z,1016.64
2018-12-19T01:55:19.854Z,1016.64
2018-12-19T01:56:19.807Z,1016.66
2018-12-19T01:57:19.761Z,1016.63
2018-12-19T01:58:19.712Z,1016.65
2018-12-19T01:59:19.668Z,1016.62
2018-12-19T02:00:19.618Z,1016.64
2018-12-19T02:01:19.572Z,1016.69
2018-12-19T02:02:19.526Z,1016.61
2018-12-19T02:03:19.479Z,1016.63
2018-12-19T02:04:19.430Z,1016.55
2018-12-19T02:05:19.384Z,1016.58
2018-12-19T02:06:19.338Z,1016.55
2018-12-19T02:07:19.291Z,1016.54
2018-12-19T02:08:19.243Z,1016.53
2018-12-19T02:09:19.197Z,1016.55
2018-12-19T02:10:19.467Z,1016.47
2018-12-19T02:11:19.103Z,1016.48
2018-12-19T02:12:19.056Z,1016.48
2018-12-19T02:13:19.010Z,1016.50
2018-12-19T02:14:18.965Z,1016.45
2018-12-19T02:15:18.916Z,1016.40
2018-12-19T02:16:18.868Z,1016.46
2018-12-19T02:17:18.820Z,1016.38
2018-12-19T02:18:18.775Z,1016.50
2018-12-19T02:19:18.728Z,1016.41
2018-12-19T02:20:18.680Z,1016.37
2018-12-19T02:21:18.633Z,1016.38
2018-12-19T02:22:18.585Z,1016.32
2018-12-19T02:23:18.590Z,1016.35
2018-12-19T02:24:18.491Z,1016.32
2018-12-19T02:25:18.446Z,1016.31
2018-12-19T02:26:18.398Z,1016.36
2018-12-19T02:27:18.353Z,1016.37
2018-12-19T02:28:18.303Z,1016.36
2018-12-19T02:29:18.256Z,1016.36
2018-12-19T02:30:18.213Z,1016.26
2018-12-19T02:31:18.164Z,1016.29
2018-12-19T02:32:18.116Z,1016.28
2018-12-19T02:33:18.069Z,1016.29
2018-12-19T02:34:18.021Z,1016.22
2018-12-19T02:35:17.976Z,1016.18
2018-12-19T02:36:17.929Z,1016.19
2018-12-19T02:37:17.885Z,1016.24
2018-12-19T02:38:17.896Z,1016.16
2018-12-19T02:39:17.787Z,1016.18
2018-12-19T02:40:17.742Z,1016.17
2018-12-19T02:41:17.693Z,1016.17
2018-12-19T02:42:17.705Z,1016.21
2018-12-19T02:43:17.649Z,1016.19
2018-12-19T02:44:17.605Z,1016.19
2018-12-19T02:45:17.505Z,1016.16
2018-12-19T02:46:17.476Z,1016.20
2018-12-19T02:47:17.412Z,1016.18
2018-12-19T02:48:17.364Z,1016.14
2018-12-19T02:49:17.320Z,1016.13
2018-12-19T02:50:17.270Z,1016.17
2018-12-19T02:51:17.224Z,1016.09
2018-12-19T02:52:17.174Z,1016.17
2018-12-19T02:53:17.131Z,1016.18
2018-12-19T02:54:17.083Z,1016.16
2018-12-19T02:55:17.036Z,1016.11
2018-12-19T02:56:16.987Z,1016.14
2018-12-19T02:57:16.940Z,1016.10
2018-12-19T02:58:16.894Z,1016.11
2018-12-19T02:59:16.855Z,1016.04
2018-12-19T03:00:16.798Z,1016.09
2018-12-19T03:01:16.751Z,1016.07
2018-12-19T03:02:16.706Z,1015.96
2018-12-19T03:03:16.660Z,1015.96
2018-12-19T03:04:16.612Z,1015.95
2018-12-19T03:05:16.565Z,1015.95
2018-12-19T03:06:16.517Z,1015.97
2018-12-19T03:07:16.470Z,1015.93
2018-12-19T03:08:16.423Z,1015.92
2018-12-19T03:09:16.377Z,1015.99
2018-12-19T03:10:16.330Z,1015.93
2018-12-19T03:11:16.282Z,1015.95
2018-12-19T03:12:16.235Z,1015.96
2018-12-19T03:13:16.194Z,1015.91
2018-12-19T03:14:16.142Z,1015.84
2018-12-19T03:15:16.095Z,1015.88
2018-12-19T03:16:16.046Z,1015.90
2018-12-19T03:17:16.002Z,1015.88
2018-12-19T03:18:15.959Z,1015.90
2018-12-19T03:19:15.907Z,1015.87
2018-12-19T03:20:15.859Z,1015.95
2018-12-19T03:21:15.812Z,1015.94
2018-12-19T03:22:15.771Z,1015.86
2018-12-19T03:23:15.724Z,1015.91
2018-12-19T03:24:15.672Z,1015.93
2018-12-19T03:25:15.627Z,1015.90
2018-12-19T03:26:15.578Z,1015.89
2018-12-19T03:27:15.848Z,1015.88
2018-12-19T03:28:15.801Z,1015.85
2018-12-19T03:29:15.436Z,1015.91
2018-12-19T03:30:15.391Z,1015.87
2018-12-19T03:31:15.345Z,1015.84
2018-12-19T03:32:15.302Z,1015.83
2018-12-19T03:33:15.252Z,1015.85
2018-12-19T03:34:15.203Z,1015.88
2018-12-19T03:35:15.156Z,1015.87
2018-12-19T03:36:15.107Z,1015.86
2018-12-19T03:37:15.062Z,1015.88
2018-12-19T03:38:15.015Z,1015.84
2018-12-19T03:39:14.969Z,1015.86
2018-12-19T03:40:14.921Z,1015.81
2018-12-19T03:41:14.872Z,1015.84
2018-12-19T03:42:14.830Z,1015.85
2018-12-19T03:43:14.780Z,1015.81
2018-12-19T03:44:14.733Z,1015.80
2018-12-19T03:45:14.685Z,1015.77
2018-12-19T03:46:14.640Z,1015.74
2018-12-19T03:47:14.594Z,1015.80
2018-12-19T03:48:14.595Z,1015.81
2018-12-19T03:49:14.500Z,1015.78
2018-12-19T03:50:14.452Z,1015.78
2018-12-19T03:51:14.404Z,1015.68
2018-12-19T03:52:14.356Z,1015.71
2018-12-19T03:53:14.311Z,1015.76
2018-12-19T03:54:14.264Z,1015.79
2018-12-19T03:55:14.219Z,1015.77
2018-12-19T03:56:14.168Z,1015.83
2018-12-19T03:57:14.124Z,1015.77
2018-12-19T03:58:14.076Z,1015.77
2018-12-19T03:59:14.029Z,1015.73
2018-12-19T04:00:13.987Z,1015.74
2018-12-19T04:01:13.935Z,1015.68
2018-12-19T04:02:13.923Z,1015.70
2018-12-19T04:03:13.843Z,1015.69
2018-12-19T04:04:13.793Z,1015.75
2018-12-19T04:05:13.748Z,1015.72
2018-12-19T04:06:13.700Z,1015.68
2018-12-19T04:07:13.655Z,1015.68
2018-12-19T04:08:13.657Z,1015.74
2018-12-19T04:09:13.610Z,1015.68
2018-12-19T04:10:13.521Z,1015.69
2018-12-19T04:11:13.471Z,1015.69
2018-12-19T04:12:13.421Z,1015.66
2018-12-19T04:13:13.373Z,1015.63
2018-12-19T04:14:13.325Z,1015.61
2018-12-19T04:15:13.281Z,1015.61
2018-12-19T04:16:13.246Z,1015.54
2018-12-19T04:17:13.186Z,1015.50
2018-12-19T04:18:13.138Z,1015.49
2018-12-19T04:19:13.092Z,1015.41
2018-12-19T04:20:13.050Z,1015.46
2018-12-19T04:21:12.998Z,1015.36
2018-12-19T04:22:12.962Z,1015.35
2018-12-19T04:23:12.904Z,1015.36
2018-12-19T04:24:12.857Z,1015.38
2018-12-19T04:25:12.813Z,1015.29
2018-12-19T04:26:12.768Z,1015.28
2018-12-19T04:27:12.716Z,1015.19
2018-12-19T04:28:12.670Z,1015.17
2018-12-19T04:29:12.623Z,1015.15
2018-12-19T04:30:12.577Z,1015.10
2018-12-19T04:31:12.579Z,1015.04
2018-12-19T04:32:12.482Z,1015.04
2018-12-19T04:33:12.435Z,1014.99
2018-12-19T04:34:12.389Z,1015.05
2018-12-19T04:35:12.345Z,1015.10
2018-12-19T04:36:12.296Z,1015.04
2018-12-19T04:37:12.247Z,1015.00
2018-12-19T04:38:12.201Z,1014.93
2018-12-19T04:39:12.154Z,1014.95
2018-12-19T04:40:12.124Z,1014.97
2018-12-19T04:41:12.064Z,1014.98
2018-12-19T04:42:12.016Z,1014.94
2018-12-19T04:43:11.972Z,1014.91
2018-12-19T04:44:11.919Z,1014.93
2018-12-19T04:45:11.872Z,1014.81
2018-12-19T04:46:11.826Z,1014.79
2018-12-19T04:47:11.779Z,1014.84
2018-12-19T04:48:11.732Z,1014.81
2018-12-19T04:49:11.692Z,1014.73
2018-12-19T04:50:11.638Z,1014.71
2018-12-19T04:51:11.591Z,1014.67
2018-12-19T04:52:11.594Z,1014.68
2018-12-19T04:53:11.495Z,1014.66
2018-12-19T04:54:11.449Z,1014.60
2018-12-19T04:55:11.405Z,1014.63
2018-12-19T04:56:11.426Z,1014.61
2018-12-19T04:57:11.308Z,1014.66
2018-12-19T04:58:11.262Z,1014.64
2018-12-19T04:59:11.215Z,1014.63
2018-12-19T05:00:11.169Z,1014.68
2018-12-19T05:01:11.121Z,1014.66
2018-12-19T05:02:11.078Z,1014.63
2018-12-19T05:03:11.027Z,1014.71
2018-12-19T05:04:10.980Z,1014.59
2018-12-19T05:05:10.932Z,1014.56
2018-12-19T05:06:10.887Z,1014.52
2018-12-19T05:07:10.841Z,1014.46
2018-12-19T05:08:10.793Z,1014.49
2018-12-19T05:09:10.744Z,1014.53
2018-12-19T05:10:12.473Z,1014.46
2018-12-19T05:11:10.653Z,1014.51
2018-12-19T05:12:10.603Z,1014.51
2018-12-19T05:13:10.559Z,1014.48
2018-12-19T05:14:10.561Z,1014.37
2018-12-19T05:15:10.464Z,1014.40
2018-12-19T05:16:10.417Z,1014.37
2018-12-19T05:17:10.370Z,1014.44
2018-12-19T05:18:10.324Z,1014.40
2018-12-19T05:19:10.277Z,1014.37
2018-12-19T05:20:10.230Z,1014.28
2018-12-19T05:21:10.182Z,1014.28
2018-12-19T05:22:10.135Z,1014.33
2018-12-19T05:23:10.087Z,1014.32
2018-12-19T05:24:10.041Z,1014.27
2018-12-19T05:25:09.995Z,1014.32
2018-12-19T05:26:09.947Z,1014.33
2018-12-19T05:27:09.901Z,1014.34
2018-12-19T05:28:09.853Z,1014.43
2018-12-19T05:29:09.806Z,1014.39
2018-12-19T05:30:09.760Z,1014.22
2018-12-19T05:31:09.716Z,1014.28
2018-12-19T05:32:09.664Z,1014.32
2018-12-19T05:33:09.618Z,1014.33
2018-12-19T05:34:09.622Z,1014.30
2018-12-19T05:35:09.524Z,1014.42
2018-12-19T05:36:09.477Z,1014.36
2018-12-19T05:37:09.432Z,1014.35
2018-12-19T05:38:09.383Z,1014.34
2018-12-19T05:39:09.337Z,1014.39
2018-12-19T05:40:09.289Z,1014.30
2018-12-19T05:41:09.242Z,1014.37
2018-12-19T05:42:09.197Z,1014.34
2018-12-19T05:43:09.150Z,1014.38
2018-12-19T05:44:09.101Z,1014.41
2018-12-19T05:45:09.061Z,1014.37
2018-12-19T05:46:09.008Z,1014.42
2018-12-19T05:47:08.961Z,1014.39
2018-12-19T05:48:08.914Z,1014.42
2018-12-19T05:49:08.869Z,1014.40
2018-12-19T05:50:08.821Z,1014.35
2018-12-19T05:51:08.773Z,1014.41
2018-12-19T05:52:08.728Z,1014.42
2018-12-19T05:53:08.686Z,1014.46
2018-12-19T05:54:08.632Z,1014.52
2018-12-19T05:55:08.635Z,1014.45
2018-12-19T05:56:08.538Z,1014.46
2018-12-19T05:57:08.491Z,1014.44
2018-12-19T05:58:08.445Z,1014.45
2018-12-19T05:59:08.398Z,1014.41
2018-12-19T06:00:08.350Z,1014.41
2018-12-19T06:01:08.303Z,1014.38
2018-12-19T06:02:08.257Z,1014.32
2018-12-19T06:03:08.210Z,1014.35
2018-12-19T06:04:08.162Z,1014.39
2018-12-19T06:05:08.115Z,1014.33
2018-12-19T06:06:08.069Z,1014.35
2018-12-19T06:07:08.022Z,1014.30
2018-12-19T06:08:07.975Z,1014.30
2018-12-19T06:09:07.927Z,1014.28
2018-12-19T06:10:07.882Z,1014.27
2018-12-19T06:11:07.833Z,1014.32
2018-12-19T06:12:07.805Z,1014.26
2018-12-19T06:13:07.740Z,1014.33
2018-12-19T06:14:07.691Z,1014.32
2018-12-19T06:15:07.646Z,1014.30
2018-12-19T06:16:07.603Z,1014.20
2018-12-19T06:17:07.659Z,1014.19
2018-12-19T06:18:07.505Z,1014.19
2018-12-19T06:19:07.457Z,1014.23
2018-12-19T06:20:07.410Z,1014.17
2018-12-19T06:21:07.364Z,1014.16
2018-12-19T06:22:07.317Z,1014.16
2018-12-19T06:23:07.270Z,1014.11
2018-12-19T06:24:07.222Z,1014.18
2018-12-19T06:25:07.177Z,1014.18
2018-12-19T06:26:07.131Z,1014.15
2018-12-19T06:27:07.083Z,1014.17
2018-12-19T06:28:07.033Z,1014.15
2018-12-19T06:29:06.991Z,1014.08
2018-12-19T06:30:06.940Z,1014.16
2018-12-19T06:31:06.898Z,1014.10
2018-12-19T06:32:06.847Z,1014.11
2018-12-19T06:33:06.807Z,1014.18
2018-12-19T06:34:06.753Z,1014.10
2018-12-19T06:35:06.706Z,1014.20
2018-12-19T06:36:06.659Z,1014.16
2018-12-19T06:37:06.613Z,1014.17
2018-12-19T06:38:06.566Z,1014.17
2018-12-19T06:39:06.519Z,1014.23
2018-12-19T06:40:06.473Z,1014.21
2018-12-19T06:41:06.425Z,1014.21
2018-12-19T06:42:06.376Z,1014.19
2018-12-19T06:43:06.331Z,1014.25
2018-12-19T06:44:06.283Z,1014.25
2018-12-19T06:45:06.235Z,1014.26
2018-12-19T06:46:06.193Z,1014.28
2018-12-19T06:47:06.144Z,1014.21
2018-12-19T06:48:06.095Z,1014.23
2018-12-19T06:49:06.048Z,1014.27
2018-12-19T06:50:06.001Z,1014.25
2018-12-19T06:51:05.955Z,1014.26
2018-12-19T06:52:05.906Z,1014.18
2018-12-19T06:53:05.861Z,1014.21
2018-12-19T06:54:05.813Z,1014.15
2018-12-19T06:55:05.767Z,1014.28
2018-12-19T06:56:05.720Z,1014.28
2018-12-19T06:57:05.675Z,1014.27
2018-12-19T06:58:05.676Z,1014.18
2018-12-19T06:59:05.578Z,1014.21
2018-12-19T07:00:05.532Z,1014.23
2018-12-19T07:01:05.487Z,1014.25
2018-12-19T07:02:05.444Z,1014.27
2018-12-19T07:03:05.393Z,1014.18
2018-12-19T07:04:05.343Z,1014.18
2018-12-19T07:05:05.297Z,1014.18
2018-12-19T07:06:05.250Z,1014.21
2018-12-19T07:07:05.204Z,1014.27
2018-12-19T07:08:05.155Z,1014.19
2018-12-19T07:09:05.109Z,1014.18
2018-12-19T07:10:05.063Z,1014.15
2018-12-19T07:11:05.017Z,1014.15
2018-12-19T07:12:04.968Z,1014.20
2018-12-19T07:13:04.922Z,1014.14
2018-12-19T07:14:04.874Z,1014.18
2018-12-19T07:15:04.828Z,1014.12
2018-12-19T07:16:04.780Z,1014.08
2018-12-19T07:17:04.736Z,1014.12
2018-12-19T07:18:04.687Z,1014.08
2018-12-19T07:19:04.640Z,1014.09
2018-12-19T07:20:04.594Z,1014.10
2018-12-19T07:21:04.595Z,1014.12
2018-12-19T07:22:04.498Z,1014.13
2018-12-19T07:23:04.451Z,1014.20
2018-12-19T07:24:04.404Z,1014.21
2018-12-19T07:25:04.364Z,1014.17
2018-12-19T07:26:04.311Z,1014.17
2018-12-19T07:27:04.264Z,1014.24
2018-12-19T07:28:04.216Z,1014.14
2018-12-19T07:29:04.170Z,1014.16
2018-12-19T07:30:04.124Z,1014.11
2018-12-19T07:31:04.077Z,1014.09
2018-12-19T07:32:04.030Z,1014.16
2018-12-19T07:33:03.984Z,1014.12
2018-12-19T07:34:03.939Z,1014.06
2018-12-19T07:35:03.888Z,1014.11
2018-12-19T07:36:03.842Z,1014.08
2018-12-19T07:37:03.796Z,1014.13
2018-12-19T07:38:03.748Z,1014.10
2018-12-19T07:39:03.701Z,1014.11
2018-12-19T07:40:03.654Z,1014.08
2018-12-19T07:41:03.607Z,1014.12
2018-12-19T07:42:03.611Z,1014.15
2018-12-19T07:43:03.514Z,1014.15
2018-12-19T07:44:03.466Z,1014.16
2018-12-19T07:45:03.419Z,1014.12
2018-12-19T07:46:03.379Z,1014.18
2018-12-19T07:47:03.328Z,1014.15
2018-12-19T07:48:03.278Z,1014.24
2018-12-19T07:49:03.232Z,1014.07
2018-12-19T07:50:03.184Z,1014.00
2018-12-19T07:51:03.138Z,1013.97
2018-12-19T07:52:03.091Z,1013.97
2018-12-19T07:53:03.044Z,1013.98
2018-12-19T07:54:02.997Z,1013.96
2018-12-19T07:55:02.950Z,1014.15
2018-12-19T07:56:02.905Z,1014.04
2018-12-19T07:57:02.860Z,1014.00
2018-12-19T07:58:02.809Z,1014.01
2018-12-19T07:59:02.763Z,1014.18
2018-12-19T08:00:02.715Z,1014.09
2018-12-19T08:01:02.742Z,1013.99
2018-12-19T08:02:02.622Z,1013.99
2018-12-19T08:03:02.626Z,1014.02
2018-12-19T08:04:02.543Z,1014.00
2018-12-19T08:05:02.480Z,1013.94
2018-12-19T08:06:02.435Z,1013.93
2018-12-19T08:07:02.389Z,1013.87
2018-12-19T08:08:02.340Z,1013.84
2018-12-19T08:09:02.293Z,1013.82
2018-12-19T08:10:02.246Z,1013.86
2018-12-19T08:11:02.201Z,1013.86
2018-12-19T08:12:02.152Z,1013.85
2018-12-19T08:13:02.107Z,1013.90
2018-12-19T08:14:02.059Z,1013.90
2018-12-19T08:15:02.026Z,1013.95
2018-12-19T08:16:01.965Z,1013.95
2018-12-19T08:17:01.918Z,1013.88
2018-12-19T08:18:01.871Z,1013.87
2018-12-19T08:19:01.824Z,1013.86
2018-12-19T08:20:01.780Z,1013.82
2018-12-19T08:21:01.781Z,1013.83
2018-12-19T08:22:01.685Z,1013.86
2018-12-19T08:23:01.687Z,1013.76
2018-12-19T08:24:01.640Z,1013.81
2018-12-19T08:25:01.758Z,1013.82
2018-12-19T08:26:01.499Z,1013.88
2018-12-19T08:27:01.454Z,1013.84
2018-12-19T08:28:01.403Z,1013.85
2018-12-19T08:29:01.356Z,1013.83
2018-12-19T08:30:01.309Z,1013.86
2018-12-19T08:31:01.263Z,1013.89
2018-12-19T08:32:01.215Z,1013.88
2018-12-19T08:33:01.169Z,1013.84
2018-12-19T08:34:01.122Z,1013.88
2018-12-19T08:35:01.076Z,1013.88
2018-12-19T08:36:01.027Z,1013.89
2018-12-19T08:37:00.982Z,1013.89
2018-12-19T08:38:00.935Z,1013.91
2018-12-19T08:39:00.888Z,1013.96
2018-12-19T08:40:00.841Z,1013.97
2018-12-19T08:41:00.794Z,1014.00
2018-12-19T08:42:00.751Z,1013.95
2018-12-19T08:43:00.702Z,1013.83
2018-12-19T08:44:00.654Z,1014.00
2018-12-19T08:45:00.607Z,1013.86
2018-12-19T08:46:00.612Z,1013.84
2018-12-19T08:47:00.514Z,1013.83
2018-12-19T08:48:00.466Z,1013.85
2018-12-19T08:49:00.418Z,1013.85
2018-12-19T08:50:00.373Z,1013.89
2018-12-19T08:51:00.330Z,1013.95
2018-12-19T08:52:00.280Z,1013.91
2018-12-19T08:53:00.232Z,1013.95
2018-12-19T08:54:00.186Z,1014.00
2018-12-19T08:55:00.139Z,1013.97
2018-12-19T08:56:00.091Z,1014.02
2018-12-19T08:57:00.045Z,1014.00
2018-12-19T08:58:00.003Z,1014.04
2018-12-19T08:58:59.951Z,1014.03
2018-12-19T08:59:59.907Z,1013.98
2018-12-19T09:00:59.864Z,1014.01
2018-12-19T09:01:59.810Z,1014.04
2018-12-19T09:02:59.774Z,1014.02
2018-12-19T09:03:59.718Z,1014.05
2018-12-19T09:04:59.721Z,1013.98
2018-12-19T09:05:59.675Z,1014.05
2018-12-19T09:06:59.628Z,1014.11
2018-12-19T09:07:59.530Z,1013.96
2018-12-19T09:08:59.482Z,1013.99
2018-12-19T09:09:59.439Z,1014.02
2018-12-19T09:11:05.486Z,1014.05
2018-12-19T09:11:59.343Z,1013.88
2018-12-19T09:12:59.297Z,1013.93
2018-12-19T09:13:59.250Z,1013.96
2018-12-19T09:15:00.526Z,1013.91
2018-12-19T09:15:59.157Z,1013.89
2018-12-19T09:16:59.111Z,1013.94
2018-12-19T09:17:59.063Z,1013.89
2018-12-19T09:18:59.017Z,1013.86
2018-12-19T09:19:58.969Z,1013.90
2018-12-19T09:20:58.926Z,1013.80
2018-12-19T09:21:58.875Z,1013.73
2018-12-19T09:22:58.830Z,1013.70
2018-12-19T09:23:58.782Z,1013.72
2018-12-19T09:24:58.734Z,1013.65
2018-12-19T09:25:58.690Z,1013.66
2018-12-19T09:26:58.741Z,1013.67
2018-12-19T09:27:58.746Z,1013.69
2018-12-19T09:28:58.698Z,1013.62
2018-12-19T09:29:58.502Z,1013.66
2018-12-19T09:30:58.456Z,1013.62
2018-12-19T09:31:58.406Z,1013.63
2018-12-19T09:32:58.362Z,1013.64
2018-12-19T09:33:58.314Z,1013.66
2018-12-19T09:34:58.268Z,1013.65
2018-12-19T09:35:58.219Z,1013.64
2018-12-19T09:36:58.174Z,1013.62
2018-12-19T09:37:58.127Z,1013.58
2018-12-19T09:38:58.082Z,1013.53
2018-12-19T09:39:58.033Z,1013.51
2018-12-19T09:40:57.987Z,1013.51
2018-12-19T09:41:57.940Z,1013.47
2018-12-19T09:42:57.894Z,1013.47
2018-12-19T09:43:57.845Z,1013.45
2018-12-19T09:44:57.799Z,1013.48
2018-12-19T09:45:57.753Z,1013.49
2018-12-19T09:46:57.706Z,1013.41
2018-12-19T09:47:57.658Z,1013.33
2018-12-19T09:48:57.612Z,1013.39
2018-12-19T09:49:57.566Z,1013.34
2018-12-19T09:50:57.602Z,1013.27
2018-12-19T09:51:57.472Z,1013.31
2018-12-19T09:52:57.425Z,1013.30
2018-12-19T09:53:57.379Z,1013.37
2018-12-19T09:54:57.332Z,1013.18
2018-12-19T09:55:57.284Z,1013.24
2018-12-19T09:56:57.239Z,1013.12
2018-12-19T09:57:57.191Z,1013.17
2018-12-19T09:58:57.145Z,1013.00
2018-12-19T09:59:57.096Z,1012.99
2018-12-19T10:00:57.292Z,1012.99
2018-12-19T10:01:57.005Z,1012.98
2018-12-19T10:02:56.961Z,1013.01
2018-12-19T10:03:56.911Z,1013.05
2018-12-19T10:04:56.864Z,1013.06
2018-12-19T10:05:56.818Z,1013.09
2018-12-19T10:06:56.771Z,1013.13
2018-12-19T10:07:56.723Z,1013.01
2018-12-19T10:08:56.676Z,1013.11
2018-12-19T10:09:56.629Z,1013.10
2018-12-19T10:10:56.595Z,1013.20
2018-12-19T10:11:56.536Z,1013.12
2018-12-19T10:12:56.490Z,1013.14
2018-12-19T10:13:56.445Z,1013.26
2018-12-19T10:14:56.447Z,1013.34
2018-12-19T10:15:56.348Z,1013.41
2018-12-19T10:16:56.304Z,1013.41
2018-12-19T10:17:56.255Z,1013.41
2018-12-19T10:18:56.209Z,1013.32
2018-12-19T10:19:56.162Z,1013.28
2018-12-19T10:20:56.116Z,1013.26
2018-12-19T10:21:56.069Z,1013.33
2018-12-19T10:22:56.023Z,1013.28
2018-12-19T10:23:55.982Z,1013.30
2018-12-19T10:24:55.929Z,1013.32
2018-12-19T10:25:55.882Z,1013.29
2018-12-19T10:26:55.836Z,1013.28
2018-12-19T10:27:55.788Z,1013.27
2018-12-19T10:28:55.743Z,1013.23
2018-12-19T10:29:55.697Z,1013.31
2018-12-19T10:30:55.648Z,1013.25
2018-12-19T10:31:55.601Z,1013.26
2018-12-19T10:32:55.618Z,1013.21
2018-12-19T10:33:55.509Z,1013.20
2018-12-19T10:34:55.462Z,1013.20
2018-12-19T10:35:55.415Z,1013.17
2018-12-19T10:36:55.368Z,1013.20
2018-12-19T10:37:55.325Z,1013.17
2018-12-19T10:38:55.275Z,1013.22
2018-12-19T10:39:55.228Z,1013.25
2018-12-19T10:40:55.182Z,1013.23
2018-12-19T10:41:55.138Z,1013.25
2018-12-19T10:42:55.087Z,1013.24
2018-12-19T10:43:55.045Z,1013.22
2018-12-19T10:44:54.994Z,1013.13
2018-12-19T10:45:54.949Z,1013.09
2018-12-19T10:46:54.902Z,1013.08
2018-12-19T10:47:54.854Z,1013.01
2018-12-19T10:48:54.808Z,1013.02
2018-12-19T10:49:54.764Z,1013.02
2018-12-19T10:50:54.714Z,1013.01
2018-12-19T10:51:54.668Z,1012.98
2018-12-19T10:52:54.621Z,1013.05
2018-12-19T10:53:54.629Z,1012.97
2018-12-19T10:54:54.578Z,1012.99
2018-12-19T10:55:54.479Z,1012.99
2018-12-19T10:56:54.434Z,1013.04
2018-12-19T10:57:54.388Z,1012.94
2018-12-19T10:58:54.348Z,1012.90
2018-12-19T10:59:54.295Z,1012.90
2018-12-19T11:00:54.271Z,1012.90
2018-12-19T11:01:54.200Z,1012.93
2018-12-19T11:02:54.155Z,1012.83
2018-12-19T11:03:54.110Z,1012.84
2018-12-19T11:04:54.343Z,1012.83
2018-12-19T11:05:54.443Z,1012.74
2018-12-19T11:06:53.967Z,1012.77
2018-12-19T11:07:53.921Z,1012.77
2018-12-19T11:08:53.874Z,1012.78
2018-12-19T11:09:53.828Z,1012.80
2018-12-19T11:10:53.783Z,1012.83
2018-12-19T11:11:53.734Z,1012.74
2018-12-19T11:12:53.687Z,1012.72
2018-12-19T11:13:53.641Z,1012.74
2018-12-19T11:14:53.595Z,1012.74
2018-12-19T11:15:53.598Z,1012.68
2018-12-19T11:16:53.502Z,1012.72
2018-12-19T11:17:53.454Z,1012.71
2018-12-19T11:18:53.407Z,1012.77
2018-12-19T11:19:53.359Z,1012.71
2018-12-19T11:20:53.313Z,1012.68
2018-12-19T11:21:53.267Z,1012.63
2018-12-19T11:22:53.220Z,1012.65
2018-12-19T11:23:53.172Z,1012.61
2018-12-19T11:24:53.126Z,1012.50
2018-12-19T11:25:53.083Z,1012.59
2018-12-19T11:26:53.033Z,1012.54
2018-12-19T11:27:52.986Z,1012.60
2018-12-19T11:28:52.939Z,1012.67
2018-12-19T11:29:52.891Z,1012.61
2018-12-19T11:30:52.846Z,1012.58
2018-12-19T11:31:52.798Z,1012.62
2018-12-19T11:32:52.755Z,1012.59
2018-12-19T11:33:52.707Z,1012.69
2018-12-19T11:34:52.659Z,1012.58
2018-12-19T11:35:52.612Z,1012.51
2018-12-19T11:36:52.567Z,1012.57
2018-12-19T11:37:52.619Z,1012.55
2018-12-19T11:38:52.473Z,1012.55
2018-12-19T11:39:52.426Z,1012.61
2018-12-19T11:40:52.379Z,1012.62
2018-12-19T11:41:52.332Z,1012.55
2018-12-19T11:42:52.286Z,1012.54
2018-12-19T11:43:52.238Z,1012.49
2018-12-19T11:44:52.197Z,1012.50
2018-12-19T11:45:52.144Z,1012.53
2018-12-19T11:46:52.105Z,1012.51
2018-12-19T11:47:52.052Z,1012.46
2018-12-19T11:48:52.061Z,1012.44
2018-12-19T11:49:51.958Z,1012.40
2018-12-19T11:50:51.914Z,1012.45
2018-12-19T11:51:51.866Z,1012.37
2018-12-19T11:52:51.818Z,1012.41
2018-12-19T11:53:51.772Z,1012.39
2018-12-19T11:54:51.725Z,1012.36
2018-12-19T11:55:51.680Z,1012.39
2018-12-19T11:56:51.681Z,1012.39
2018-12-19T11:57:51.635Z,1012.36
2018-12-19T11:58:51.637Z,1012.34
2018-12-19T11:59:51.491Z,1012.33
2018-12-19T12:00:51.446Z,1012.36
2018-12-19T12:01:51.399Z,1012.41
2018-12-19T12:02:51.352Z,1012.34
2018-12-19T12:03:51.304Z,1012.35
2018-12-19T12:04:51.258Z,1012.37